createdAt,value
2023-05-10T00:01:09.806Z,5.53
2023-05-10T00:03:36.544Z,5.43
2023-05-10T00:06:03.571Z,5.30
2023-05-10T00:08:30.251Z,5.80
2023-05-10T00:10:57.140Z,6.10
2023-05-10T00:13:23.801Z,6.10
2023-05-10T00:15:50.565Z,5.80
2023-05-10T00:18:17.209Z,6.18
2023-05-10T00:20:43.794Z,5.57
2023-05-10T00:23:10.369Z,6.07
2023-05-10T00:25:37.002Z,6.57
2023-05-10T00:28:03.763Z,6.28
2023-05-10T00:30:30.665Z,6.47
2023-05-10T00:32:57.379Z,5.37
2023-05-10T00:35:24.252Z,5.85
2023-05-10T00:37:50.889Z,6.03
2023-05-10T00:44:06.558Z,6.28
2023-05-10T00:46:33.521Z,5.83
2023-05-10T00:49:00.308Z,5.85
2023-05-10T00:51:27.019Z,5.43
2023-05-10T00:53:53.887Z,6.03
2023-05-10T00:56:23.884Z,6.05
2023-05-10T00:58:51.012Z,5.80
2023-05-10T01:01:17.754Z,6.18
2023-05-10T01:03:45.512Z,5.90
2023-05-10T01:06:12.257Z,5.90
2023-05-10T01:08:39.111Z,6.13
2023-05-10T01:11:05.743Z,6.30
2023-05-10T01:13:40.533Z,6.32
2023-05-10T01:16:07.858Z,5.68
2023-05-10T01:18:37.729Z,5.70
2023-05-10T01:21:15.997Z,5.50
2023-05-10T01:24:10.729Z,6.03
2023-05-10T01:27:01.402Z,5.35
2023-05-10T01:30:14.622Z,5.47
2023-05-10T01:37:00.377Z,5.50
2023-05-10T01:39:32.091Z,5.83
2023-05-10T01:42:11.292Z,5.50
2023-05-10T01:45:03.388Z,5.85
2023-05-10T01:47:51.180Z,6.07
2023-05-10T01:50:26.336Z,5.85
2023-05-10T01:52:56.153Z,5.63
2023-05-10T01:55:27.382Z,5.70
2023-05-10T01:58:09.039Z,5.75
2023-05-10T02:00:36.758Z,5.95
2023-05-10T02:03:07.615Z,6.47
2023-05-10T02:05:36.222Z,6.30
2023-05-10T02:08:07.166Z,5.90
2023-05-10T02:10:36.101Z,6.18
2023-05-10T02:13:04.374Z,5.90
2023-05-10T02:15:32.430Z,6.15
2023-05-10T02:18:00.993Z,6.30
2023-05-10T02:20:28.234Z,5.80
2023-05-10T02:22:56.857Z,6.05
2023-05-10T02:25:25.080Z,5.82
2023-05-10T02:27:54.726Z,10.70
2023-05-10T02:30:22.622Z,12.90
2023-05-10T02:32:51.619Z,20.15
2023-05-10T02:35:18.624Z,24.13
2023-05-10T02:37:47.727Z,23.08
2023-05-10T02:40:16.911Z,16.95
2023-05-10T02:42:45.466Z,9.90
2023-05-10T02:45:16.255Z,8.20
2023-05-10T02:47:43.183Z,6.80
2023-05-10T02:50:10.540Z,7.07
2023-05-10T02:52:43.586Z,10.05
2023-05-10T02:55:13.618Z,12.93
2023-05-10T02:57:47.236Z,11.18
2023-05-10T03:00:14.068Z,8.25
2023-05-10T03:02:40.831Z,7.45
2023-05-10T03:05:08.397Z,7.38
2023-05-10T03:07:35.333Z,6.43
2023-05-10T03:10:02.361Z,6.55
2023-05-10T03:12:49.112Z,5.60
2023-05-10T03:15:55.890Z,6.72
2023-05-10T03:18:28.782Z,7.55
2023-05-10T03:21:00.668Z,9.17
2023-05-10T03:23:42.816Z,8.75
2023-05-10T03:26:09.853Z,9.13
2023-05-10T03:28:37.624Z,8.23
2023-05-10T03:31:07.085Z,9.98
2023-05-10T03:33:34.493Z,10.10
2023-05-10T03:36:01.320Z,9.60
2023-05-10T03:38:29.728Z,7.93
2023-05-10T03:40:57.125Z,7.63
2023-05-10T03:43:23.796Z,7.78
2023-05-10T03:45:50.517Z,8.37
2023-05-10T03:48:17.236Z,7.38
2023-05-10T03:50:43.882Z,8.50
2023-05-10T03:53:10.495Z,8.25
2023-05-10T03:55:37.499Z,7.68
2023-05-10T03:58:04.275Z,6.53
2023-05-10T04:00:31.476Z,6.70
2023-05-10T04:02:58.505Z,6.20
2023-05-10T04:05:25.299Z,6.10
2023-05-10T04:07:53.313Z,5.72
2023-05-10T04:10:20.055Z,5.37
2023-05-10T04:12:46.755Z,5.15
2023-05-10T04:15:13.479Z,5.18
2023-05-10T04:17:40.235Z,4.90
2023-05-10T04:20:07.598Z,4.85
2023-05-10T04:22:34.179Z,5.17
2023-05-10T04:25:00.846Z,5.40
2023-05-10T04:27:28.035Z,5.28
2023-05-10T04:29:54.657Z,5.30
2023-05-10T04:32:21.529Z,5.70
2023-05-10T04:34:48.314Z,5.37
2023-05-10T04:37:14.932Z,5.47
2023-05-10T04:39:42.504Z,5.00
2023-05-10T04:42:09.631Z,5.40
2023-05-10T04:44:37.102Z,5.35
2023-05-10T04:47:04.021Z,4.33
2023-05-10T04:49:30.955Z,4.80
2023-05-10T04:51:57.650Z,5.28
2023-05-10T04:54:24.605Z,4.72
2023-05-10T04:56:51.209Z,4.80
2023-05-10T04:59:18.105Z,4.67
2023-05-10T05:01:44.856Z,5.28
2023-05-10T05:04:11.520Z,5.03
2023-05-10T05:06:38.063Z,4.95
2023-05-10T05:09:04.589Z,4.45
2023-05-10T05:11:31.379Z,5.07
2023-05-10T05:13:59.991Z,4.57
2023-05-10T05:16:27.058Z,5.28
2023-05-10T05:18:53.728Z,4.97
2023-05-10T05:21:20.911Z,4.78
2023-05-10T05:23:47.708Z,5.10
2023-05-10T05:26:14.327Z,4.72
2023-05-10T05:28:40.925Z,4.65
2023-05-10T05:31:11.196Z,4.80
2023-05-10T05:33:38.214Z,4.72
2023-05-10T05:36:06.287Z,4.40
2023-05-10T05:38:33.137Z,4.70
2023-05-10T05:40:59.691Z,4.63
2023-05-10T05:43:26.256Z,4.72
2023-05-10T05:45:56.106Z,4.97
2023-05-10T05:48:22.793Z,4.67
2023-05-10T05:50:49.382Z,5.05
2023-05-10T05:53:16.739Z,4.47
2023-05-10T05:55:53.441Z,4.80
2023-05-10T05:58:19.961Z,4.90
2023-05-10T06:00:46.532Z,5.20
2023-05-10T06:03:13.403Z,4.90
2023-05-10T06:05:40.089Z,4.85
2023-05-10T06:08:06.902Z,4.80
2023-05-10T06:10:33.471Z,4.40
2023-05-10T06:13:00.133Z,4.43
2023-05-10T06:15:27.064Z,4.70
2023-05-10T06:17:53.669Z,4.38
2023-05-10T06:20:20.369Z,4.25
2023-05-10T06:22:47.024Z,4.38
2023-05-10T06:25:15.296Z,4.20
2023-05-10T06:27:41.948Z,4.30
2023-05-10T06:30:13.422Z,4.22
2023-05-10T06:32:40.765Z,4.18
2023-05-10T06:35:07.986Z,4.75
2023-05-10T06:37:35.401Z,4.27
2023-05-10T06:40:02.850Z,4.70
2023-05-10T06:42:29.503Z,5.63
2023-05-10T06:44:56.094Z,4.95
2023-05-10T06:47:23.083Z,5.10
2023-05-10T06:49:49.707Z,5.00
2023-05-10T06:52:16.390Z,4.40
2023-05-10T06:54:42.991Z,5.13
2023-05-10T06:57:23.470Z,4.75
2023-05-10T06:59:57.188Z,4.43
2023-05-10T07:02:24.173Z,4.97
2023-05-10T07:04:52.785Z,4.80
2023-05-10T07:07:19.887Z,4.90
2023-05-10T07:09:46.918Z,5.10
2023-05-10T07:12:15.403Z,4.68
2023-05-10T07:14:43.053Z,5.20
2023-05-10T07:17:10.288Z,4.68
2023-05-10T07:19:37.152Z,5.07
2023-05-10T07:22:03.924Z,5.22
2023-05-10T07:24:32.116Z,5.47
2023-05-10T07:26:58.745Z,5.60
2023-05-10T07:29:25.350Z,5.18
2023-05-10T07:31:52.296Z,5.50
2023-05-10T07:34:18.987Z,5.00
2023-05-10T07:36:45.648Z,5.20
2023-05-10T07:39:16.227Z,5.73
2023-05-10T07:41:47.919Z,5.35
2023-05-10T07:44:14.513Z,5.68
2023-05-10T07:46:41.433Z,5.40
2023-05-10T07:49:08.119Z,5.40
2023-05-10T07:51:34.738Z,5.53
2023-05-10T07:54:01.336Z,5.32
2023-05-10T07:56:32.759Z,5.38
2023-05-10T07:59:00.755Z,5.80
2023-05-10T08:01:31.021Z,5.78
2023-05-10T08:03:57.660Z,5.30
2023-05-10T08:06:24.337Z,5.70
2023-05-10T08:08:51.582Z,6.65
2023-05-10T08:11:18.690Z,5.90
2023-05-10T08:13:45.932Z,5.38
2023-05-10T08:16:13.843Z,5.57
2023-05-10T08:18:41.159Z,6.05
2023-05-10T08:21:08.028Z,5.50
2023-05-10T08:23:34.859Z,6.07
2023-05-10T08:26:01.511Z,6.40
2023-05-10T08:28:28.174Z,6.07
2023-05-10T08:30:55.077Z,5.85
2023-05-10T08:33:21.644Z,6.35
2023-05-10T08:35:48.279Z,6.10
2023-05-10T08:38:14.971Z,6.30
2023-05-10T08:40:43.644Z,6.23
2023-05-10T08:43:13.131Z,5.93
2023-05-10T08:45:42.249Z,6.20
2023-05-10T08:48:11.273Z,6.18
2023-05-10T08:50:40.230Z,6.50
2023-05-10T08:53:14.534Z,6.03
2023-05-10T08:55:43.182Z,6.43
2023-05-10T08:58:10.619Z,7.38
2023-05-10T09:00:38.310Z,6.90
2023-05-10T09:03:06.230Z,6.78
2023-05-10T09:05:32.979Z,7.20
2023-05-10T09:08:02.633Z,6.50
2023-05-10T09:10:31.603Z,6.78
2023-05-10T09:12:59.630Z,5.80
2023-05-10T09:15:26.924Z,6.65
2023-05-10T09:17:53.731Z,6.30
2023-05-10T09:20:20.632Z,6.60
2023-05-10T09:22:47.362Z,6.40
2023-05-10T09:25:16.409Z,6.43
2023-05-10T09:27:47.743Z,6.63
2023-05-10T09:30:28.727Z,7.00
2023-05-10T09:32:56.931Z,5.70
2023-05-10T09:35:28.844Z,6.65
2023-05-10T09:37:58.769Z,6.78
2023-05-10T09:40:27.652Z,7.15
2023-05-10T09:43:06.997Z,6.47
2023-05-10T09:45:38.245Z,6.95
2023-05-10T09:48:05.429Z,6.43
2023-05-10T09:50:32.087Z,6.90
2023-05-10T09:53:04.181Z,6.70
2023-05-10T09:55:36.866Z,6.50
2023-05-10T09:58:03.472Z,6.93
2023-05-10T10:00:36.418Z,6.88
2023-05-10T10:03:04.256Z,6.10
2023-05-10T10:05:32.331Z,6.18
2023-05-10T10:07:59.758Z,6.20
2023-05-10T10:10:27.217Z,5.95
2023-05-10T10:12:54.382Z,6.35
2023-05-10T10:15:24.615Z,6.07
2023-05-10T10:17:52.706Z,6.57
2023-05-10T10:20:21.172Z,6.60
2023-05-10T10:22:48.552Z,6.38
2023-05-10T10:25:19.853Z,6.47
2023-05-10T10:27:52.545Z,6.70
2023-05-10T10:30:44.611Z,7.07
2023-05-10T10:33:29.944Z,6.03
2023-05-10T10:36:00.059Z,6.63
2023-05-10T10:38:26.820Z,6.88
2023-05-10T10:41:03.808Z,7.50
2023-05-10T10:43:31.207Z,7.35
2023-05-10T10:46:18.817Z,6.33
2023-05-10T10:48:50.689Z,6.25
2023-05-10T10:51:17.536Z,6.28
2023-05-10T10:53:44.701Z,6.25
2023-05-10T10:56:14.708Z,6.75
2023-05-10T10:58:42.394Z,5.87
2023-05-10T11:01:16.745Z,6.40
2023-05-10T11:04:03.722Z,6.75
2023-05-10T11:06:34.750Z,5.60
2023-05-10T11:09:25.510Z,5.53
2023-05-10T11:11:56.212Z,6.57
2023-05-10T11:14:23.608Z,6.18
2023-05-10T11:16:50.523Z,6.88
2023-05-10T11:19:18.916Z,6.70
2023-05-10T11:21:50.990Z,6.97
2023-05-10T11:24:23.501Z,7.43
2023-05-10T11:26:54.676Z,7.35
2023-05-10T11:29:21.401Z,7.60
2023-05-10T11:31:49.275Z,7.07
2023-05-10T11:34:34.587Z,6.60
2023-05-10T11:37:01.848Z,7.13
2023-05-10T11:39:32.515Z,6.68
2023-05-10T11:41:59.654Z,6.53
2023-05-10T11:44:33.941Z,6.53
2023-05-10T11:47:02.102Z,6.53
2023-05-10T11:49:28.800Z,6.63
2023-05-10T11:52:05.261Z,6.30
2023-05-10T11:54:32.152Z,6.18
2023-05-10T11:56:58.722Z,6.13
2023-05-10T11:59:26.239Z,6.82
2023-05-10T12:01:52.922Z,6.67
2023-05-10T12:04:20.138Z,6.30
2023-05-10T12:06:47.613Z,6.93
2023-05-10T12:09:14.170Z,7.03
2023-05-10T12:11:44.359Z,7.32
2023-05-10T12:14:11.857Z,7.43
2023-05-10T12:16:38.611Z,6.68
2023-05-10T12:19:06.460Z,7.38
2023-05-10T12:21:34.262Z,6.60
2023-05-10T12:24:03.358Z,7.18
2023-05-10T12:26:30.723Z,7.20
2023-05-10T12:29:13.966Z,7.10
2023-05-10T12:31:57.777Z,7.22
2023-05-10T12:34:42.349Z,7.10
2023-05-10T12:37:08.901Z,7.97
2023-05-10T12:39:43.195Z,7.40
2023-05-10T12:42:10.577Z,6.90
2023-05-10T12:44:37.477Z,6.70
2023-05-10T12:47:04.078Z,6.25
2023-05-10T12:49:30.874Z,6.65
2023-05-10T12:51:57.499Z,6.80
2023-05-10T12:54:24.161Z,7.28
2023-05-10T12:56:50.735Z,7.57
2023-05-10T12:59:17.443Z,7.05
2023-05-10T13:01:44.198Z,6.68
2023-05-10T13:04:11.045Z,6.20
2023-05-10T13:06:37.756Z,6.18
2023-05-10T13:09:04.639Z,6.50
2023-05-10T13:11:31.400Z,6.30
2023-05-10T13:13:58.113Z,6.03
2023-05-10T13:16:24.770Z,5.87
2023-05-10T13:18:51.625Z,5.80
2023-05-10T13:21:18.327Z,5.45
2023-05-10T13:23:45.023Z,5.00
2023-05-10T13:26:11.582Z,5.75
2023-05-10T13:28:39.694Z,5.20
2023-05-10T13:31:06.354Z,5.53
2023-05-10T13:33:32.941Z,5.30
2023-05-10T13:35:59.570Z,5.95
2023-05-10T13:38:26.695Z,5.93
2023-05-10T13:40:53.812Z,6.30
2023-05-10T13:43:20.812Z,5.65
2023-05-10T13:45:47.377Z,5.20
2023-05-10T13:48:14.127Z,5.18
2023-05-10T13:50:41.165Z,5.55
2023-05-10T13:53:07.795Z,5.90
2023-05-10T13:55:34.698Z,6.03
2023-05-10T13:58:01.269Z,5.60
2023-05-10T14:00:28.172Z,6.20
2023-05-10T14:02:55.058Z,9.50
2023-05-10T14:05:25.515Z,5.40
2023-05-10T14:07:52.955Z,5.63
2023-05-10T14:10:19.638Z,5.18
2023-05-10T14:12:46.232Z,5.63
2023-05-10T14:15:12.926Z,4.82
2023-05-10T14:17:39.526Z,4.70
2023-05-10T14:20:07.013Z,4.20
2023-05-10T14:22:33.757Z,5.05
2023-05-10T14:25:00.729Z,5.40
2023-05-10T14:27:27.341Z,5.07
2023-05-10T14:29:54.569Z,5.00
2023-05-10T14:32:21.203Z,5.18
2023-05-10T14:34:47.970Z,4.93
2023-05-10T14:37:16.195Z,4.70
2023-05-10T14:39:43.391Z,4.90
2023-05-10T14:42:10.156Z,4.63
2023-05-10T14:44:36.790Z,4.60
2023-05-10T14:47:03.446Z,4.53
2023-05-10T14:49:30.188Z,4.80
2023-05-10T14:51:56.825Z,4.72
2023-05-10T14:54:23.449Z,4.50
2023-05-10T14:56:51.022Z,4.80
2023-05-10T14:59:17.803Z,4.47
2023-05-10T15:01:45.193Z,4.80
2023-05-10T15:04:13.918Z,4.80
2023-05-10T15:06:40.913Z,4.60
2023-05-10T15:09:07.486Z,4.40
2023-05-10T15:11:34.135Z,4.47
2023-05-10T15:14:00.745Z,4.50
2023-05-10T15:16:27.565Z,4.55
2023-05-10T15:18:54.256Z,5.37
2023-05-10T15:21:20.835Z,5.20
2023-05-10T15:23:47.416Z,5.15
2023-05-10T15:26:14.033Z,5.55
2023-05-10T15:28:40.792Z,5.72
2023-05-10T15:31:07.391Z,5.70
2023-05-10T15:33:33.972Z,5.50
2023-05-10T15:36:00.606Z,5.60
2023-05-10T15:38:27.241Z,5.55
2023-05-10T15:40:57.544Z,6.07
2023-05-10T15:43:24.166Z,5.87
2023-05-10T15:45:51.375Z,5.95
2023-05-10T15:48:18.010Z,5.97
2023-05-10T15:50:44.874Z,5.82
2023-05-10T15:53:11.602Z,5.97
2023-05-10T15:55:38.140Z,5.30
2023-05-10T15:58:04.745Z,5.25
2023-05-10T16:00:31.443Z,5.45
2023-05-10T16:02:58.379Z,5.00
2023-05-10T16:05:27.397Z,4.88
2023-05-10T16:07:54.975Z,4.53
2023-05-10T16:10:21.589Z,4.60
2023-05-10T16:12:48.265Z,4.47
2023-05-10T16:15:15.214Z,4.88
2023-05-10T16:17:42.141Z,4.93
2023-05-10T16:20:09.207Z,4.43
2023-05-10T16:22:36.303Z,3.88
2023-05-10T16:25:02.950Z,3.85
2023-05-10T16:27:30.361Z,3.65
2023-05-10T16:29:57.069Z,3.85
2023-05-10T16:32:23.778Z,4.50
2023-05-10T16:34:50.527Z,4.30
2023-05-10T16:37:17.540Z,4.90
2023-05-10T16:39:44.270Z,4.38
2023-05-10T16:42:11.019Z,3.70
2023-05-10T16:44:37.695Z,3.63
2023-05-10T16:47:04.235Z,3.65
2023-05-10T16:49:30.887Z,3.92
2023-05-10T16:51:57.495Z,4.20
2023-05-10T16:54:24.009Z,4.10
2023-05-10T16:56:50.701Z,4.20
2023-05-10T16:59:17.426Z,3.92
2023-05-10T17:01:44.871Z,4.28
2023-05-10T17:04:11.667Z,4.18
2023-05-10T17:06:38.650Z,4.20
2023-05-10T17:09:05.772Z,4.50
2023-05-10T17:11:32.589Z,4.05
2023-05-10T17:13:59.668Z,4.15
2023-05-10T17:16:26.853Z,4.35
2023-05-10T17:18:53.615Z,4.22
2023-05-10T17:21:20.384Z,3.77
2023-05-10T17:23:46.955Z,3.70
2023-05-10T17:26:13.513Z,3.53
2023-05-10T17:28:40.600Z,3.40
2023-05-10T17:31:07.536Z,3.42
2023-05-10T17:33:34.148Z,4.47
2023-05-10T17:36:00.779Z,4.40
2023-05-10T17:38:27.377Z,5.57
2023-05-10T17:40:53.871Z,4.13
2023-05-10T17:43:21.268Z,4.15
2023-05-10T17:45:49.394Z,4.40
2023-05-10T17:48:15.980Z,4.00
2023-05-10T17:50:43.455Z,4.32
2023-05-10T17:53:10.665Z,4.05
2023-05-10T17:55:41.103Z,4.88
2023-05-10T17:58:08.430Z,4.63
2023-05-10T18:00:35.892Z,4.25
2023-05-10T18:03:03.714Z,3.97
2023-05-10T18:05:30.903Z,4.03
2023-05-10T18:07:57.605Z,4.15
2023-05-10T18:10:24.749Z,4.00
2023-05-10T18:12:52.363Z,4.30
2023-05-10T18:15:19.043Z,4.10
2023-05-10T18:17:45.877Z,4.15
2023-05-10T18:20:12.989Z,4.00
2023-05-10T18:22:39.900Z,3.90
2023-05-10T18:25:07.099Z,3.95
2023-05-10T18:27:34.318Z,4.15
2023-05-10T18:30:00.949Z,3.88
2023-05-10T18:32:27.969Z,4.20
2023-05-10T18:34:55.797Z,4.67
2023-05-10T18:37:22.772Z,7.00
2023-05-10T18:39:49.854Z,10.65
2023-05-10T18:42:16.413Z,11.25
2023-05-10T18:44:42.997Z,10.55
2023-05-10T18:47:09.588Z,9.30
2023-05-10T18:49:36.187Z,8.15
2023-05-10T18:52:02.804Z,8.90
2023-05-10T18:54:29.980Z,6.90
2023-05-10T18:56:57.374Z,8.18
2023-05-10T18:59:25.556Z,6.23
2023-05-10T19:01:53.657Z,6.85
2023-05-10T19:04:21.722Z,5.38
2023-05-10T19:06:48.406Z,5.90
2023-05-10T19:09:15.028Z,5.53
2023-05-10T19:11:43.239Z,6.07
2023-05-10T19:14:09.867Z,6.18
2023-05-10T19:16:36.809Z,6.63
2023-05-10T19:19:03.898Z,6.32
2023-05-10T19:21:32.255Z,6.18
2023-05-10T19:23:59.739Z,6.07
2023-05-10T19:26:26.296Z,5.35
2023-05-10T19:28:53.092Z,5.35
2023-05-10T19:31:20.886Z,6.32
2023-05-10T19:33:47.549Z,10.20
2023-05-10T19:36:14.146Z,9.83
2023-05-10T19:38:40.807Z,8.55
2023-05-10T19:41:07.396Z,8.23
2023-05-10T19:43:39.812Z,7.57
2023-05-10T19:46:06.552Z,7.72
2023-05-10T19:48:33.241Z,8.77
2023-05-10T19:51:04.754Z,6.90
2023-05-10T19:53:32.770Z,7.45
2023-05-10T19:56:04.260Z,6.40
2023-05-10T19:58:31.184Z,7.60
2023-05-10T20:00:57.865Z,6.60
2023-05-10T20:03:24.573Z,6.15
2023-05-10T20:05:51.243Z,6.55
2023-05-10T20:08:17.909Z,6.07
2023-05-10T20:10:44.613Z,6.50
2023-05-10T20:13:11.127Z,6.57
2023-05-10T20:15:37.801Z,6.00
2023-05-10T20:18:04.667Z,6.45
2023-05-10T20:20:31.712Z,7.13
2023-05-10T20:22:58.319Z,6.75
2023-05-10T20:25:24.933Z,6.00
2023-05-10T20:27:51.691Z,5.50
2023-05-10T20:30:18.978Z,5.28
2023-05-10T20:32:45.948Z,4.97
2023-05-10T20:35:12.605Z,4.88
2023-05-10T20:37:39.607Z,4.83
2023-05-10T20:40:06.860Z,4.82
2023-05-10T20:42:33.597Z,5.10
2023-05-10T20:45:00.199Z,5.20
2023-05-10T20:47:27.250Z,4.60
2023-05-10T20:49:53.982Z,4.70
2023-05-10T20:52:21.746Z,4.40
2023-05-10T20:54:49.423Z,4.40
2023-05-10T20:57:16.064Z,4.07
2023-05-10T20:59:42.958Z,4.47
2023-05-10T21:02:09.716Z,3.93
2023-05-10T21:04:36.685Z,3.72
2023-05-10T21:07:03.314Z,3.60
2023-05-10T21:09:30.020Z,3.20
2023-05-10T21:11:57.792Z,3.67
2023-05-10T21:14:24.321Z,3.60
2023-05-10T21:16:51.333Z,3.42
2023-05-10T21:19:17.971Z,3.47
2023-05-10T21:21:44.580Z,3.05
2023-05-10T21:24:11.251Z,3.42
2023-05-10T21:26:38.062Z,2.93
2023-05-10T21:29:04.937Z,3.58
2023-05-10T21:31:32.067Z,3.58
2023-05-10T21:33:58.686Z,2.92
2023-05-10T21:36:25.656Z,3.08
2023-05-10T21:38:52.194Z,3.67
2023-05-10T21:41:19.011Z,3.22
2023-05-10T21:43:45.707Z,3.30
2023-05-10T21:46:14.187Z,3.35
2023-05-10T21:48:40.998Z,3.45
2023-05-10T21:51:07.651Z,2.87
2023-05-10T21:53:36.503Z,3.10
2023-05-10T21:56:03.295Z,3.20
2023-05-10T21:58:29.909Z,3.13
2023-05-10T22:00:57.084Z,3.17
2023-05-10T22:03:23.917Z,3.10
2023-05-10T22:05:50.775Z,2.90
2023-05-10T22:08:17.338Z,3.17
2023-05-10T22:10:44.036Z,4.15
2023-05-10T22:13:11.701Z,3.05
2023-05-10T22:15:38.350Z,3.07
2023-05-10T22:18:05.194Z,3.42
2023-05-10T22:20:32.559Z,3.35
2023-05-10T22:22:59.198Z,3.47
2023-05-10T22:25:25.827Z,3.72
2023-05-10T22:27:52.385Z,3.70
2023-05-10T22:30:20.043Z,3.53
2023-05-10T22:32:47.161Z,3.17
2023-05-10T22:35:13.854Z,3.92
2023-05-10T22:37:40.444Z,3.60
2023-05-10T22:40:07.673Z,3.50
2023-05-10T22:42:34.315Z,3.85
2023-05-10T22:45:01.050Z,3.97
2023-05-10T22:47:27.728Z,4.13
2023-05-10T22:49:55.266Z,3.60
2023-05-10T22:52:21.866Z,3.70
2023-05-10T22:54:48.501Z,3.80
2023-05-10T22:57:16.080Z,3.90
2023-05-10T22:59:43.004Z,3.30
2023-05-10T23:02:09.954Z,3.30
2023-05-10T23:04:37.033Z,3.30
2023-05-10T23:07:03.706Z,3.42
2023-05-10T23:09:30.330Z,3.80
2023-05-10T23:11:57.383Z,3.30
2023-05-10T23:17:41.373Z,3.87
2023-05-10T23:20:08.727Z,3.67
2023-05-10T23:22:35.567Z,3.38
2023-05-10T23:25:02.204Z,3.75
2023-05-10T23:27:30.530Z,3.80
2023-05-10T23:29:57.813Z,4.07
2023-05-10T23:32:24.609Z,3.75
2023-05-10T23:34:51.193Z,4.10
2023-05-10T23:37:17.919Z,4.25
2023-05-10T23:39:44.767Z,4.07
2023-05-10T23:42:11.445Z,4.23
2023-05-10T23:44:38.020Z,4.22
2023-05-10T23:47:04.660Z,4.50
2023-05-10T23:49:31.210Z,4.20
2023-05-10T23:51:57.864Z,4.22
2023-05-10T23:54:24.496Z,4.73
2023-05-10T23:56:51.568Z,4.68
2023-05-10T23:59:18.179Z,4.50
